sensor_id;sensor_type;location;lat;lon;timestamp;P1;durP1;ratioP1;P2;durP2;ratioP2
1613;SDS011;800;48.824;9.346;2023-08-01T00:00:31;4.60;;;3.83;;
1613;SDS011;800;48.824;9.346;2023-08-01T00:02:57;4.37;;;3.80;;
1613;SDS011;800;48.824;9.346;2023-08-01T00:05:23;5.63;;;3.77;;
1613;SDS011;800;48.824;9.346;2023-08-01T00:07:48;5.40;;;3.57;;
1613;SDS011;800;48.824;9.346;2023-08-01T00:10:14;4.77;;;3.70;;
1613;SDS011;800;48.824;9.346;2023-08-01T00:12:41;5.60;;;4.00;;
1613;SDS011;800;48.824;9.346;2023-08-01T00:15:07;4.23;;;3.80;;
1613;SDS011;800;48.824;9.346;2023-08-01T00:17:33;3.83;;;3.40;;
1613;SDS011;800;48.824;9.346;2023-08-01T00:20:00;4.03;;;3.63;;
1613;SDS011;800;48.824;9.346;2023-08-01T00:22:27;3.73;;;3.43;;
1613;SDS011;800;48.824;9.346;2023-08-01T00:24:52;4.60;;;3.63;;
1613;SDS011;800;48.824;9.346;2023-08-01T00:27:18;5.33;;;3.70;;
1613;SDS011;800;48.824;9.346;2023-08-01T00:29:45;4.50;;;3.70;;
1613;SDS011;800;48.824;9.346;2023-08-01T00:32:10;4.00;;;3.60;;
1613;SDS011;800;48.824;9.346;2023-08-01T00:34:36;4.80;;;3.40;;
1613;SDS011;800;48.824;9.346;2023-08-01T00:37:02;3.90;;;3.50;;
1613;SDS011;800;48.824;9.346;2023-08-01T00:39:27;3.73;;;3.40;;
1613;SDS011;800;48.824;9.346;2023-08-01T00:41:53;7.37;;;4.00;;
1613;SDS011;800;48.824;9.346;2023-08-01T00:44:18;6.67;;;3.47;;
1613;SDS011;800;48.824;9.346;2023-08-01T00:46:44;4.60;;;3.73;;
1613;SDS011;800;48.824;9.346;2023-08-01T00:49:10;4.60;;;4.10;;
1613;SDS011;800;48.824;9.346;2023-08-01T00:51:36;4.77;;;3.57;;
1613;SDS011;800;48.824;9.346;2023-08-01T00:54:02;6.57;;;3.90;;
1613;SDS011;800;48.824;9.346;2023-08-01T00:56:28;4.40;;;3.33;;
1613;SDS011;800;48.824;9.346;2023-08-01T00:58:53;3.57;;;3.27;;
1613;SDS011;800;48.824;9.346;2023-08-01T01:01:19;4.30;;;2.97;;
1613;SDS011;800;48.824;9.346;2023-08-01T01:03:45;7.43;;;4.87;;
1613;SDS011;800;48.824;9.346;2023-08-01T01:06:14;5.07;;;3.67;;
1613;SDS011;800;48.824;9.346;2023-08-01T01:08:47;4.00;;;3.60;;
1613;SDS011;800;48.824;9.346;2023-08-01T01:11:12;5.47;;;4.00;;
1613;SDS011;800;48.824;9.346;2023-08-01T01:13:38;5.53;;;3.40;;
1613;SDS011;800;48.824;9.346;2023-08-01T01:16:04;4.67;;;3.70;;
1613;SDS011;800;48.824;9.346;2023-08-01T01:18:29;4.40;;;3.63;;
1613;SDS011;800;48.824;9.346;2023-08-01T01:20:55;5.40;;;3.80;;
1613;SDS011;800;48.824;9.346;2023-08-01T01:23:21;4.40;;;3.70;;
1613;SDS011;800;48.824;9.346;2023-08-01T01:25:47;4.43;;;4.00;;
1613;SDS011;800;48.824;9.346;2023-08-01T01:28:16;5.87;;;4.63;;
1613;SDS011;800;48.824;9.346;2023-08-01T01:30:42;5.00;;;4.17;;
1613;SDS011;800;48.824;9.346;2023-08-01T01:33:09;4.47;;;3.90;;
1613;SDS011;800;48.824;9.346;2023-08-01T01:35:36;7.77;;;4.23;;
1613;SDS011;800;48.824;9.346;2023-08-01T01:38:02;4.33;;;3.93;;
1613;SDS011;800;48.824;9.346;2023-08-01T01:40:31;7.20;;;3.87;;
1613;SDS011;800;48.824;9.346;2023-08-01T01:42:58;4.90;;;3.57;;
1613;SDS011;800;48.824;9.346;2023-08-01T01:45:24;5.90;;;3.63;;
1613;SDS011;800;48.824;9.346;2023-08-01T01:47:50;5.30;;;4.00;;
1613;SDS011;800;48.824;9.346;2023-08-01T01:50:15;3.80;;;3.47;;
1613;SDS011;800;48.824;9.346;2023-08-01T01:52:41;6.93;;;4.60;;
1613;SDS011;800;48.824;9.346;2023-08-01T01:55:06;4.13;;;3.50;;
1613;SDS011;800;48.824;9.346;2023-08-01T01:57:32;4.10;;;3.73;;
1613;SDS011;800;48.824;9.346;2023-08-01T02:00:00;4.57;;;3.90;;
1613;SDS011;800;48.824;9.346;2023-08-01T02:02:25;6.07;;;4.07;;
1613;SDS011;800;48.824;9.346;2023-08-01T02:04:51;4.00;;;3.60;;
1613;SDS011;800;48.824;9.346;2023-08-01T02:07:16;12.83;;;4.37;;
1613;SDS011;800;48.824;9.346;2023-08-01T02:09:42;3.90;;;3.53;;
1613;SDS011;800;48.824;9.346;2023-08-01T02:12:08;5.13;;;4.03;;
1613;SDS011;800;48.824;9.346;2023-08-01T02:14:35;4.87;;;3.60;;
1613;SDS011;800;48.824;9.346;2023-08-01T02:17:01;7.67;;;3.80;;
1613;SDS011;800;48.824;9.346;2023-08-01T02:19:27;6.87;;;4.57;;
1613;SDS011;800;48.824;9.346;2023-08-01T02:21:53;4.77;;;4.30;;
1613;SDS011;800;48.824;9.346;2023-08-01T02:24:18;5.57;;;4.07;;
1613;SDS011;800;48.824;9.346;2023-08-01T02:26:44;5.37;;;3.70;;
1613;SDS011;800;48.824;9.346;2023-08-01T02:29:10;3.70;;;3.40;;
1613;SDS011;800;48.824;9.346;2023-08-01T02:31:35;4.17;;;3.23;;
1613;SDS011;800;48.824;9.346;2023-08-01T02:34:01;5.73;;;3.40;;
1613;SDS011;800;48.824;9.346;2023-08-01T02:36:26;5.20;;;3.60;;
1613;SDS011;800;48.824;9.346;2023-08-01T02:38:52;4.73;;;4.20;;
1613;SDS011;800;48.824;9.346;2023-08-01T02:41:17;4.53;;;4.10;;
1613;SDS011;800;48.824;9.346;2023-08-01T02:43:43;5.03;;;3.60;;
1613;SDS011;800;48.824;9.346;2023-08-01T02:46:09;4.30;;;3.40;;
1613;SDS011;800;48.824;9.346;2023-08-01T02:48:35;4.50;;;3.40;;
1613;SDS011;800;48.824;9.346;2023-08-01T02:51:01;4.47;;;3.80;;
1613;SDS011;800;48.824;9.346;2023-08-01T02:53:26;3.87;;;3.30;;
1613;SDS011;800;48.824;9.346;2023-08-01T02:55:52;4.23;;;3.30;;
1613;SDS011;800;48.824;9.346;2023-08-01T02:58:18;4.80;;;3.50;;
1613;SDS011;800;48.824;9.346;2023-08-01T03:00:43;5.67;;;4.23;;
1613;SDS011;800;48.824;9.346;2023-08-01T03:03:09;4.63;;;3.60;;
1613;SDS011;800;48.824;9.346;2023-08-01T03:05:36;4.20;;;3.80;;
1613;SDS011;800;48.824;9.346;2023-08-01T03:08:02;9.17;;;4.70;;
1613;SDS011;800;48.824;9.346;2023-08-01T03:10:28;6.60;;;4.67;;
1613;SDS011;800;48.824;9.346;2023-08-01T03:12:54;10.23;;;4.20;;
1613;SDS011;800;48.824;9.346;2023-08-01T03:15:20;4.17;;;3.77;;
1613;SDS011;800;48.824;9.346;2023-08-01T03:17:46;6.73;;;5.10;;
1613;SDS011;800;48.824;9.346;2023-08-01T03:20:11;5.37;;;3.80;;
1613;SDS011;800;48.824;9.346;2023-08-01T03:22:40;5.27;;;3.70;;
1613;SDS011;800;48.824;9.346;2023-08-01T03:25:06;4.97;;;3.90;;
1613;SDS011;800;48.824;9.346;2023-08-01T03:27:33;4.57;;;3.70;;
1613;SDS011;800;48.824;9.346;2023-08-01T03:29:59;4.43;;;3.93;;
1613;SDS011;800;48.824;9.346;2023-08-01T03:32:25;4.20;;;3.87;;
1613;SDS011;800;48.824;9.346;2023-08-01T03:34:50;4.40;;;4.00;;
1613;SDS011;800;48.824;9.346;2023-08-01T03:37:16;5.03;;;3.80;;
1613;SDS011;800;48.824;9.346;2023-08-01T03:39:43;4.43;;;3.57;;
1613;SDS011;800;48.824;9.346;2023-08-01T03:42:08;6.13;;;3.60;;
1613;SDS011;800;48.824;9.346;2023-08-01T03:44:34;5.10;;;4.00;;
1613;SDS011;800;48.824;9.346;2023-08-01T03:46:59;5.10;;;3.70;;
1613;SDS011;800;48.824;9.346;2023-08-01T03:49:25;4.27;;;3.30;;
1613;SDS011;800;48.824;9.346;2023-08-01T03:51:50;6.13;;;4.00;;
1613;SDS011;800;48.824;9.346;2023-08-01T03:54:16;5.30;;;3.73;;
1613;SDS011;800;48.824;9.346;2023-08-01T03:56:42;4.80;;;3.50;;
1613;SDS011;800;48.824;9.346;2023-08-01T03:59:09;4.67;;;3.80;;
1613;SDS011;800;48.824;9.346;2023-08-01T04:01:35;3.77;;;3.20;;
1613;SDS011;800;48.824;9.346;2023-08-01T04:04:02;3.23;;;2.90;;
1613;SDS011;800;48.824;9.346;2023-08-01T04:06:27;4.43;;;4.00;;
1613;SDS011;800;48.824;9.346;2023-08-01T04:08:53;5.50;;;3.63;;
1613;SDS011;800;48.824;9.346;2023-08-01T04:11:21;3.20;;;2.87;;
1613;SDS011;800;48.824;9.346;2023-08-01T04:13:47;4.90;;;3.67;;
1613;SDS011;800;48.824;9.346;2023-08-01T04:16:12;7.27;;;4.37;;
1613;SDS011;800;48.824;9.346;2023-08-01T04:18:38;4.70;;;3.60;;
1613;SDS011;800;48.824;9.346;2023-08-01T04:21:04;4.20;;;3.80;;
1613;SDS011;800;48.824;9.346;2023-08-01T04:23:29;4.83;;;3.93;;
1613;SDS011;800;48.824;9.346;2023-08-01T04:25:55;4.70;;;3.37;;
1613;SDS011;800;48.824;9.346;2023-08-01T04:28:20;4.07;;;3.67;;
1613;SDS011;800;48.824;9.346;2023-08-01T04:30:49;5.47;;;3.60;;
1613;SDS011;800;48.824;9.346;2023-08-01T04:33:15;5.50;;;3.07;;
1613;SDS011;800;48.824;9.346;2023-08-01T04:35:41;4.90;;;4.10;;
1613;SDS011;800;48.824;9.346;2023-08-01T04:38:07;3.70;;;3.40;;
1613;SDS011;800;48.824;9.346;2023-08-01T04:40:33;3.60;;;2.83;;
1613;SDS011;800;48.824;9.346;2023-08-01T04:43:00;3.90;;;3.40;;
1613;SDS011;800;48.824;9.346;2023-08-01T04:45:26;5.23;;;3.60;;
1613;SDS011;800;48.824;9.346;2023-08-01T04:47:52;4.47;;;3.50;;
1613;SDS011;800;48.824;9.346;2023-08-01T04:50:18;4.50;;;3.33;;
1613;SDS011;800;48.824;9.346;2023-08-01T04:52:43;3.80;;;3.40;;
1613;SDS011;800;48.824;9.346;2023-08-01T04:55:09;4.30;;;3.33;;
1613;SDS011;800;48.824;9.346;2023-08-01T04:57:35;7.53;;;3.17;;
1613;SDS011;800;48.824;9.346;2023-08-01T05:00:00;5.20;;;3.90;;
1613;SDS011;800;48.824;9.346;2023-08-01T05:02:26;3.20;;;2.53;;
1613;SDS011;800;48.824;9.346;2023-08-01T05:04:52;4.43;;;4.03;;
1613;SDS011;800;48.824;9.346;2023-08-01T05:07:18;5.23;;;3.80;;
1613;SDS011;800;48.824;9.346;2023-08-01T05:09:43;4.83;;;3.47;;
1613;SDS011;800;48.824;9.346;2023-08-01T05:12:09;4.23;;;3.63;;
1613;SDS011;800;48.824;9.346;2023-08-01T05:14:34;4.37;;;2.83;;
1613;SDS011;800;48.824;9.346;2023-08-01T05:17:00;3.10;;;2.80;;
1613;SDS011;800;48.824;9.346;2023-08-01T05:19:26;4.00;;;3.13;;
1613;SDS011;800;48.824;9.346;2023-08-01T05:21:51;4.07;;;3.43;;
1613;SDS011;800;48.824;9.346;2023-08-01T05:24:17;13.43;;;3.40;;
1613;SDS011;800;48.824;9.346;2023-08-01T05:26:42;3.10;;;2.80;;
1613;SDS011;800;48.824;9.346;2023-08-01T05:29:08;4.87;;;3.07;;
1613;SDS011;800;48.824;9.346;2023-08-01T05:31:34;4.60;;;3.70;;
1613;SDS011;800;48.824;9.346;2023-08-01T05:33:59;4.33;;;3.67;;
1613;SDS011;800;48.824;9.346;2023-08-01T05:36:25;6.50;;;3.40;;
1613;SDS011;800;48.824;9.346;2023-08-01T05:38:50;3.70;;;3.10;;
1613;SDS011;800;48.824;9.346;2023-08-01T05:41:16;4.47;;;2.70;;
1613;SDS011;800;48.824;9.346;2023-08-01T05:43:41;5.70;;;3.40;;
1613;SDS011;800;48.824;9.346;2023-08-01T05:46:07;6.07;;;3.30;;
1613;SDS011;800;48.824;9.346;2023-08-01T05:48:33;3.63;;;3.27;;
1613;SDS011;800;48.824;9.346;2023-08-01T05:50:58;23.97;;;3.80;;
1613;SDS011;800;48.824;9.346;2023-08-01T05:53:24;6.50;;;3.27;;
1613;SDS011;800;48.824;9.346;2023-08-01T05:55:49;5.07;;;3.27;;
1613;SDS011;800;48.824;9.346;2023-08-01T05:58:15;4.97;;;3.40;;
1613;SDS011;800;48.824;9.346;2023-08-01T06:00:41;4.63;;;3.50;;
1613;SDS011;800;48.824;9.346;2023-08-01T06:03:06;3.47;;;3.10;;
1613;SDS011;800;48.824;9.346;2023-08-01T06:05:32;4.83;;;3.37;;
1613;SDS011;800;48.824;9.346;2023-08-01T06:07:58;3.03;;;2.60;;
1613;SDS011;800;48.824;9.346;2023-08-01T06:10:23;4.03;;;2.80;;
1613;SDS011;800;48.824;9.346;2023-08-01T06:12:49;4.13;;;3.20;;
1613;SDS011;800;48.824;9.346;2023-08-01T06:15:15;3.80;;;3.23;;
1613;SDS011;800;48.824;9.346;2023-08-01T06:17:40;7.53;;;3.27;;
1613;SDS011;800;48.824;9.346;2023-08-01T06:20:06;3.67;;;3.17;;
1613;SDS011;800;48.824;9.346;2023-08-01T06:22:32;5.33;;;4.13;;
1613;SDS011;800;48.824;9.346;2023-08-01T06:24:58;6.30;;;3.60;;
1613;SDS011;800;48.824;9.346;2023-08-01T06:27:24;7.20;;;4.00;;
1613;SDS011;800;48.824;9.346;2023-08-01T06:29:50;4.60;;;3.57;;
1613;SDS011;800;48.824;9.346;2023-08-01T06:32:15;4.13;;;3.70;;
1613;SDS011;800;48.824;9.346;2023-08-01T06:34:41;5.70;;;3.77;;
1613;SDS011;800;48.824;9.346;2023-08-01T06:37:06;6.73;;;4.47;;
1613;SDS011;800;48.824;9.346;2023-08-01T06:39:32;5.70;;;3.80;;
1613;SDS011;800;48.824;9.346;2023-08-01T06:41:58;5.93;;;3.90;;
1613;SDS011;800;48.824;9.346;2023-08-01T06:44:23;6.73;;;4.10;;
1613;SDS011;800;48.824;9.346;2023-08-01T06:46:49;4.60;;;3.70;;
1613;SDS011;800;48.824;9.346;2023-08-01T06:49:14;6.17;;;4.90;;
1613;SDS011;800;48.824;9.346;2023-08-01T06:51:40;5.27;;;4.00;;
1613;SDS011;800;48.824;9.346;2023-08-01T06:54:07;5.97;;;4.30;;
1613;SDS011;800;48.824;9.346;2023-08-01T06:56:33;7.60;;;5.17;;
1613;SDS011;800;48.824;9.346;2023-08-01T06:58:58;6.40;;;5.20;;
1613;SDS011;800;48.824;9.346;2023-08-01T07:01:24;8.00;;;6.70;;
1613;SDS011;800;48.824;9.346;2023-08-01T07:03:50;10.40;;;7.27;;
1613;SDS011;800;48.824;9.346;2023-08-01T07:06:18;13.00;;;5.33;;
1613;SDS011;800;48.824;9.346;2023-08-01T07:08:44;6.37;;;5.67;;
1613;SDS011;800;48.824;9.346;2023-08-01T07:11:09;7.27;;;5.83;;
1613;SDS011;800;48.824;9.346;2023-08-01T07:13:35;8.03;;;6.40;;
1613;SDS011;800;48.824;9.346;2023-08-01T07:16:01;10.53;;;5.77;;
1613;SDS011;800;48.824;9.346;2023-08-01T07:18:27;7.27;;;5.70;;
1613;SDS011;800;48.824;9.346;2023-08-01T07:20:59;6.53;;;5.93;;
1613;SDS011;800;48.824;9.346;2023-08-01T07:23:25;7.03;;;5.00;;
1613;SDS011;800;48.824;9.346;2023-08-01T07:25:51;7.03;;;6.33;;
1613;SDS011;800;48.824;9.346;2023-08-01T07:28:16;8.47;;;5.60;;
1613;SDS011;800;48.824;9.346;2023-08-01T07:30:42;7.83;;;5.97;;
1613;SDS011;800;48.824;9.346;2023-08-01T07:33:08;7.20;;;5.70;;
1613;SDS011;800;48.824;9.346;2023-08-01T07:35:33;8.30;;;6.30;;
1613;SDS011;800;48.824;9.346;2023-08-01T07:37:59;8.33;;;5.63;;
1613;SDS011;800;48.824;9.346;2023-08-01T07:40:24;8.10;;;6.13;;
1613;SDS011;800;48.824;9.346;2023-08-01T07:42:50;6.13;;;5.33;;
1613;SDS011;800;48.824;9.346;2023-08-01T07:45:15;10.10;;;5.60;;
1613;SDS011;800;48.824;9.346;2023-08-01T07:47:42;8.00;;;5.83;;
1613;SDS011;800;48.824;9.346;2023-08-01T07:50:07;7.33;;;5.53;;
1613;SDS011;800;48.824;9.346;2023-08-01T07:52:33;6.67;;;5.13;;
1613;SDS011;800;48.824;9.346;2023-08-01T07:54:59;7.27;;;5.30;;
1613;SDS011;800;48.824;9.346;2023-08-01T07:57:24;6.20;;;5.00;;
1613;SDS011;800;48.824;9.346;2023-08-01T07:59:50;6.80;;;4.80;;
1613;SDS011;800;48.824;9.346;2023-08-01T08:02:16;5.60;;;4.33;;
1613;SDS011;800;48.824;9.346;2023-08-01T08:04:41;5.80;;;3.90;;
1613;SDS011;800;48.824;9.346;2023-08-01T08:07:07;5.20;;;4.53;;
1613;SDS011;800;48.824;9.346;2023-08-01T08:09:32;6.87;;;4.60;;
1613;SDS011;800;48.824;9.346;2023-08-01T08:11:58;5.10;;;4.60;;
1613;SDS011;800;48.824;9.346;2023-08-01T08:14:23;5.63;;;4.17;;
1613;SDS011;800;48.824;9.346;2023-08-01T08:16:50;5.50;;;3.70;;
1613;SDS011;800;48.824;9.346;2023-08-01T08:19:16;3.87;;;3.47;;
1613;SDS011;800;48.824;9.346;2023-08-01T08:21:41;4.30;;;3.90;;
1613;SDS011;800;48.824;9.346;2023-08-01T08:24:07;3.83;;;3.43;;
1613;SDS011;800;48.824;9.346;2023-08-01T08:26:32;3.80;;;2.90;;
1613;SDS011;800;48.824;9.346;2023-08-01T08:29:02;4.50;;;3.40;;
1613;SDS011;800;48.824;9.346;2023-08-01T08:31:29;4.23;;;3.37;;
1613;SDS011;800;48.824;9.346;2023-08-01T08:33:55;4.00;;;3.43;;
1613;SDS011;800;48.824;9.346;2023-08-01T08:36:21;4.03;;;3.50;;
1613;SDS011;800;48.824;9.346;2023-08-01T08:38:46;4.67;;;3.70;;
1613;SDS011;800;48.824;9.346;2023-08-01T08:41:15;3.47;;;3.10;;
1613;SDS011;800;48.824;9.346;2023-08-01T08:43:45;3.93;;;3.40;;
1613;SDS011;800;48.824;9.346;2023-08-01T08:46:14;3.70;;;3.40;;
1613;SDS011;800;48.824;9.346;2023-08-01T08:48:41;4.40;;;3.80;;
1613;SDS011;800;48.824;9.346;2023-08-01T08:51:09;4.83;;;3.50;;
1613;SDS011;800;48.824;9.346;2023-08-01T08:53:36;4.07;;;3.00;;
1613;SDS011;800;48.824;9.346;2023-08-01T08:56:04;4.23;;;3.30;;
1613;SDS011;800;48.824;9.346;2023-08-01T08:58:33;4.50;;;3.70;;
1613;SDS011;800;48.824;9.346;2023-08-01T09:00:59;3.60;;;3.10;;
1613;SDS011;800;48.824;9.346;2023-08-01T09:03:26;7.00;;;3.10;;
1613;SDS011;800;48.824;9.346;2023-08-01T09:06:00;11.77;;;3.70;;
1613;SDS011;800;48.824;9.346;2023-08-01T09:08:32;3.53;;;3.23;;
1613;SDS011;800;48.824;9.346;2023-08-01T09:11:01;3.97;;;3.27;;
1613;SDS011;800;48.824;9.346;2023-08-01T09:13:26;4.73;;;3.47;;
1613;SDS011;800;48.824;9.346;2023-08-01T09:15:52;4.90;;;3.77;;
1613;SDS011;800;48.824;9.346;2023-08-01T09:18:18;3.73;;;3.23;;
1613;SDS011;800;48.824;9.346;2023-08-01T09:20:47;3.30;;;3.00;;
1613;SDS011;800;48.824;9.346;2023-08-01T09:23:14;5.53;;;3.27;;
1613;SDS011;800;48.824;9.346;2023-08-01T09:25:40;4.00;;;2.97;;
1613;SDS011;800;48.824;9.346;2023-08-01T09:28:19;3.93;;;2.90;;
1613;SDS011;800;48.824;9.346;2023-08-01T09:30:55;3.23;;;2.80;;
1613;SDS011;800;48.824;9.346;2023-08-01T09:33:22;3.13;;;2.83;;
1613;SDS011;800;48.824;9.346;2023-08-01T09:35:51;4.20;;;3.10;;
1613;SDS011;800;48.824;9.346;2023-08-01T09:38:17;3.37;;;2.57;;
1613;SDS011;800;48.824;9.346;2023-08-01T09:40:43;2.67;;;2.47;;
1613;SDS011;800;48.824;9.346;2023-08-01T09:43:10;4.50;;;2.30;;
1613;SDS011;800;48.824;9.346;2023-08-01T09:45:37;2.30;;;2.13;;
1613;SDS011;800;48.824;9.346;2023-08-01T09:48:02;2.40;;;2.20;;
1613;SDS011;800;48.824;9.346;2023-08-01T09:50:28;1.90;;;1.80;;
1613;SDS011;800;48.824;9.346;2023-08-01T09:52:54;2.17;;;1.80;;
1613;SDS011;800;48.824;9.346;2023-08-01T09:57:51;2.23;;;2.03;;
1613;SDS011;800;48.824;9.346;2023-08-01T10:00:21;2.80;;;1.80;;
1613;SDS011;800;48.824;9.346;2023-08-01T10:02:47;3.23;;;1.73;;
1613;SDS011;800;48.824;9.346;2023-08-01T10:05:18;1.70;;;1.60;;
1613;SDS011;800;48.824;9.346;2023-08-01T10:07:45;1.60;;;1.50;;
1613;SDS011;800;48.824;9.346;2023-08-01T10:10:12;3.53;;;1.97;;
1613;SDS011;800;48.824;9.346;2023-08-01T10:12:42;1.80;;;1.50;;
1613;SDS011;800;48.824;9.346;2023-08-01T10:15:10;1.77;;;1.67;;
1613;SDS011;800;48.824;9.346;2023-08-01T10:17:36;2.10;;;1.73;;
1613;SDS011;800;48.824;9.346;2023-08-01T10:20:02;2.13;;;1.93;;
1613;SDS011;800;48.824;9.346;2023-08-01T10:22:28;1.40;;;1.30;;
1613;SDS011;800;48.824;9.346;2023-08-01T10:24:55;6.50;;;1.37;;
1613;SDS011;800;48.824;9.346;2023-08-01T10:27:21;2.23;;;1.20;;
1613;SDS011;800;48.824;9.346;2023-08-01T10:29:57;1.33;;;1.23;;
1613;SDS011;800;48.824;9.346;2023-08-01T10:32:31;0.90;;;0.90;;
1613;SDS011;800;48.824;9.346;2023-08-01T10:35:01;1.43;;;1.33;;
1613;SDS011;800;48.824;9.346;2023-08-01T10:37:43;1.30;;;1.20;;
1613;SDS011;800;48.824;9.346;2023-08-01T10:40:12;1.30;;;1.10;;
1613;SDS011;800;48.824;9.346;2023-08-01T10:42:41;4.10;;;1.43;;
1613;SDS011;800;48.824;9.346;2023-08-01T10:45:20;1.10;;;1.00;;
1613;SDS011;800;48.824;9.346;2023-08-01T10:47:48;1.77;;;1.20;;
1613;SDS011;800;48.824;9.346;2023-08-01T10:50:15;1.67;;;1.20;;
1613;SDS011;800;48.824;9.346;2023-08-01T10:52:41;2.10;;;1.30;;
1613;SDS011;800;48.824;9.346;2023-08-01T10:55:08;1.57;;;1.47;;
1613;SDS011;800;48.824;9.346;2023-08-01T10:57:35;3.13;;;1.77;;
1613;SDS011;800;48.824;9.346;2023-08-01T11:00:03;0.90;;;0.83;;
1613;SDS011;800;48.824;9.346;2023-08-01T11:02:34;1.00;;;0.90;;
1613;SDS011;800;48.824;9.346;2023-08-01T11:05:02;0.90;;;0.90;;
1613;SDS011;800;48.824;9.346;2023-08-01T11:07:29;2.17;;;1.00;;
1613;SDS011;800;48.824;9.346;2023-08-01T11:12:37;0.80;;;0.80;;
1613;SDS011;800;48.824;9.346;2023-08-01T11:15:05;1.30;;;1.10;;
1613;SDS011;800;48.824;9.346;2023-08-01T11:17:33;1.10;;;1.00;;
1613;SDS011;800;48.824;9.346;2023-08-01T11:20:03;0.80;;;0.80;;
1613;SDS011;800;48.824;9.346;2023-08-01T11:22:33;1.97;;;1.10;;
1613;SDS011;800;48.824;9.346;2023-08-01T11:24:59;1.23;;;1.13;;
1613;SDS011;800;48.824;9.346;2023-08-01T11:27:25;1.43;;;0.80;;
1613;SDS011;800;48.824;9.346;2023-08-01T11:29:52;5.43;;;0.90;;
1613;SDS011;800;48.824;9.346;2023-08-01T11:32:18;2.57;;;1.03;;
1613;SDS011;800;48.824;9.346;2023-08-01T11:34:48;1.47;;;0.80;;
1613;SDS011;800;48.824;9.346;2023-08-01T11:37:14;1.43;;;1.00;;
1613;SDS011;800;48.824;9.346;2023-08-01T11:39:45;1.53;;;1.30;;
1613;SDS011;800;48.824;9.346;2023-08-01T11:42:17;1.40;;;1.30;;
1613;SDS011;800;48.824;9.346;2023-08-01T11:44:43;2.43;;;1.40;;
1613;SDS011;800;48.824;9.346;2023-08-01T11:47:10;1.73;;;1.00;;
1613;SDS011;800;48.824;9.346;2023-08-01T11:49:37;2.03;;;1.33;;
1613;SDS011;800;48.824;9.346;2023-08-01T11:52:03;1.87;;;1.30;;
1613;SDS011;800;48.824;9.346;2023-08-01T11:54:29;2.47;;;1.30;;
1613;SDS011;800;48.824;9.346;2023-08-01T11:57:00;1.00;;;1.00;;
1613;SDS011;800;48.824;9.346;2023-08-01T11:59:26;1.27;;;1.03;;
1613;SDS011;800;48.824;9.346;2023-08-01T12:01:52;1.63;;;1.40;;
1613;SDS011;800;48.824;9.346;2023-08-01T12:04:24;1.10;;;1.00;;
1613;SDS011;800;48.824;9.346;2023-08-01T12:06:51;2.33;;;1.40;;
1613;SDS011;800;48.824;9.346;2023-08-01T12:09:16;1.33;;;1.23;;
1613;SDS011;800;48.824;9.346;2023-08-01T12:11:45;2.60;;;1.80;;
1613;SDS011;800;48.824;9.346;2023-08-01T12:14:11;1.73;;;1.40;;
1613;SDS011;800;48.824;9.346;2023-08-01T12:16:39;3.47;;;1.50;;
1613;SDS011;800;48.824;9.346;2023-08-01T12:19:10;2.47;;;2.07;;
1613;SDS011;800;48.824;9.346;2023-08-01T12:21:41;1.40;;;1.30;;
1613;SDS011;800;48.824;9.346;2023-08-01T12:24:06;1.80;;;1.70;;
1613;SDS011;800;48.824;9.346;2023-08-01T12:26:32;2.40;;;1.40;;
1613;SDS011;800;48.824;9.346;2023-08-01T12:28:58;1.80;;;1.10;;
1613;SDS011;800;48.824;9.346;2023-08-01T12:31:23;1.10;;;0.80;;
1613;SDS011;800;48.824;9.346;2023-08-01T12:33:49;2.17;;;1.20;;
1613;SDS011;800;48.824;9.346;2023-08-01T12:36:15;1.60;;;1.43;;
1613;SDS011;800;48.824;9.346;2023-08-01T12:38:41;1.50;;;1.13;;
1613;SDS011;800;48.824;9.346;2023-08-01T12:41:07;3.63;;;1.57;;
1613;SDS011;800;48.824;9.346;2023-08-01T12:43:32;2.10;;;1.50;;
1613;SDS011;800;48.824;9.346;2023-08-01T12:45:58;1.93;;;1.03;;
1613;SDS011;800;48.824;9.346;2023-08-01T12:48:24;1.97;;;1.23;;
1613;SDS011;800;48.824;9.346;2023-08-01T12:50:50;2.40;;;1.47;;
1613;SDS011;800;48.824;9.346;2023-08-01T12:53:16;5.00;;;1.30;;
1613;SDS011;800;48.824;9.346;2023-08-01T12:55:43;2.60;;;1.23;;
1613;SDS011;800;48.824;9.346;2023-08-01T12:58:09;3.97;;;1.33;;
1613;SDS011;800;48.824;9.346;2023-08-01T13:00:35;2.80;;;1.50;;
1613;SDS011;800;48.824;9.346;2023-08-01T13:03:01;1.57;;;1.07;;
1613;SDS011;800;48.824;9.346;2023-08-01T13:05:26;1.47;;;1.30;;
1613;SDS011;800;48.824;9.346;2023-08-01T13:07:52;1.60;;;1.50;;
1613;SDS011;800;48.824;9.346;2023-08-01T13:10:18;2.20;;;1.40;;
1613;SDS011;800;48.824;9.346;2023-08-01T13:12:43;1.40;;;1.30;;
1613;SDS011;800;48.824;9.346;2023-08-01T13:15:09;2.43;;;1.20;;
1613;SDS011;800;48.824;9.346;2023-08-01T13:17:34;1.70;;;1.40;;
1613;SDS011;800;48.824;9.346;2023-08-01T13:20:00;1.30;;;1.20;;
1613;SDS011;800;48.824;9.346;2023-08-01T13:22:26;1.50;;;1.40;;
1613;SDS011;800;48.824;9.346;2023-08-01T13:24:51;1.37;;;1.27;;
1613;SDS011;800;48.824;9.346;2023-08-01T13:27:17;2.07;;;1.40;;
1613;SDS011;800;48.824;9.346;2023-08-01T13:29:43;2.10;;;1.67;;
1613;SDS011;800;48.824;9.346;2023-08-01T13:32:08;1.53;;;1.37;;
1613;SDS011;800;48.824;9.346;2023-08-01T13:34:34;2.67;;;1.87;;
1613;SDS011;800;48.824;9.346;2023-08-01T13:36:59;3.10;;;1.77;;
1613;SDS011;800;48.824;9.346;2023-08-01T13:39:25;1.83;;;1.50;;
1613;SDS011;800;48.824;9.346;2023-08-01T13:41:50;2.23;;;1.30;;
1613;SDS011;800;48.824;9.346;2023-08-01T13:44:16;1.87;;;1.23;;
1613;SDS011;800;48.824;9.346;2023-08-01T13:46:41;1.57;;;1.27;;
1613;SDS011;800;48.824;9.346;2023-08-01T13:49:07;3.30;;;1.40;;
1613;SDS011;800;48.824;9.346;2023-08-01T13:51:33;1.80;;;1.40;;
1613;SDS011;800;48.824;9.346;2023-08-01T13:53:59;2.87;;;1.67;;
1613;SDS011;800;48.824;9.346;2023-08-01T13:56:25;2.33;;;1.53;;
1613;SDS011;800;48.824;9.346;2023-08-01T13:58:52;2.73;;;1.70;;
1613;SDS011;800;48.824;9.346;2023-08-01T14:01:18;1.30;;;1.20;;
1613;SDS011;800;48.824;9.346;2023-08-01T14:03:44;2.20;;;1.60;;
1613;SDS011;800;48.824;9.346;2023-08-01T14:06:10;1.60;;;1.30;;
1613;SDS011;800;48.824;9.346;2023-08-01T14:08:37;1.43;;;1.33;;
1613;SDS011;800;48.824;9.346;2023-08-01T14:11:04;3.97;;;1.50;;
1613;SDS011;800;48.824;9.346;2023-08-01T14:13:32;1.83;;;1.47;;
1613;SDS011;800;48.824;9.346;2023-08-01T14:15:58;2.80;;;1.80;;
1613;SDS011;800;48.824;9.346;2023-08-01T14:18:24;2.47;;;1.50;;
1613;SDS011;800;48.824;9.346;2023-08-01T14:20:49;2.00;;;1.50;;
1613;SDS011;800;48.824;9.346;2023-08-01T14:23:15;2.93;;;1.67;;
1613;SDS011;800;48.824;9.346;2023-08-01T14:25:40;1.30;;;1.20;;
1613;SDS011;800;48.824;9.346;2023-08-01T14:28:06;2.10;;;1.60;;
1613;SDS011;800;48.824;9.346;2023-08-01T14:30:32;1.47;;;1.37;;
1613;SDS011;800;48.824;9.346;2023-08-01T14:33:05;1.47;;;1.37;;
1613;SDS011;800;48.824;9.346;2023-08-01T14:35:33;1.33;;;1.23;;
1613;SDS011;800;48.824;9.346;2023-08-01T14:37:59;1.40;;;1.30;;
1613;SDS011;800;48.824;9.346;2023-08-01T14:40:25;1.87;;;1.40;;
1613;SDS011;800;48.824;9.346;2023-08-01T14:42:50;2.00;;;1.40;;
1613;SDS011;800;48.824;9.346;2023-08-01T14:45:17;1.80;;;1.53;;
1613;SDS011;800;48.824;9.346;2023-08-01T14:47:43;2.70;;;1.60;;
1613;SDS011;800;48.824;9.346;2023-08-01T14:50:09;3.10;;;2.67;;
1613;SDS011;800;48.824;9.346;2023-08-01T14:52:36;1.93;;;1.73;;
1613;SDS011;800;48.824;9.346;2023-08-01T14:55:01;1.70;;;1.40;;
1613;SDS011;800;48.824;9.346;2023-08-01T14:57:27;2.17;;;1.70;;
1613;SDS011;800;48.824;9.346;2023-08-01T14:59:53;1.93;;;1.50;;
1613;SDS011;800;48.824;9.346;2023-08-01T15:02:19;1.33;;;1.23;;
1613;SDS011;800;48.824;9.346;2023-08-01T15:04:45;2.20;;;1.50;;
1613;SDS011;800;48.824;9.346;2023-08-01T15:07:11;3.30;;;1.27;;
1613;SDS011;800;48.824;9.346;2023-08-01T15:09:36;2.03;;;1.80;;
1613;SDS011;800;48.824;9.346;2023-08-01T15:12:02;1.77;;;1.67;;
1613;SDS011;800;48.824;9.346;2023-08-01T15:14:27;2.27;;;1.60;;
1613;SDS011;800;48.824;9.346;2023-08-01T15:16:53;1.80;;;1.50;;
1613;SDS011;800;48.824;9.346;2023-08-01T15:19:20;1.77;;;1.10;;
1613;SDS011;800;48.824;9.346;2023-08-01T15:21:45;1.33;;;1.20;;
1613;SDS011;800;48.824;9.346;2023-08-01T15:24:11;2.13;;;1.67;;
1613;SDS011;800;48.824;9.346;2023-08-01T15:26:36;1.90;;;1.40;;
1613;SDS011;800;48.824;9.346;2023-08-01T15:29:02;2.73;;;1.50;;